Dardenne Prairie, Missouri
Current Conditions -  °F | °C
As of 5:54 PM on Sunday 21 Dec 2014 (Local Time) from KSUS Reporting Station
Overcast Overcast  
Wind Chill: 37°   Ceiling: 4000
Heat Index: 42°   Visibility: 10mi
Dew Point: 32°   Wind: 9mph
Humidity: 67%   Direction: 140°SE
Pressure: 30"   Gusts: NA
Location:  38.757°N, 90.7247°W
Report Text: KSUS 212354Z 14008KT 10SM OVC040 06/00 A3000 RMK AO2 SLP163 T00560000 10067 20056 56007
Loading
Personal Weather Stations






























Interactive Weather Map New forecast layout! Learn more

10-Day Weather Forecast

Advertisements
Track Severe Weather on mobile